Aérodrome :
LOGIN :

S'inscrire | Disclaimer

   EN    FR    IT 

 










Légende :    VFR   VFR Marginal   IFR   IFR Intensif   IFR Très Intensif
Visi : 
Plafond : 
>= 8 km
>= 3000ft
5 à 8 km
1000 à 3000 ft
1500m à 5 km
500 à 1000 ft
800 à 1500m
200 à 500 ft
< 800m
< 200 ft
Symboles :   Orages  Brouillard  Fortes neiges  Fortes précipitations  Vent > 20 kt
SIGMETs :   Divers  Orages  Givrage  Turbulence  Onde Orograph.  Cendres Volcan.






- Altitude de l'aérodrome : 202 ft
- Code IATA : LGW


EGKK - London Gatwick

DERNIER METAR :
  • 012250Z 21006KT CAVOK 13/10 Q1020

METARs EXPIRÉS :
  • 011620Z 21011KT 9999 FEW039 19/08 Q1018
  • 012150Z 21005KT CAVOK 14/09 Q1020
  • 012120Z 21006KT CAVOK 14/09 Q1020
  • 012050Z 20005KT CAVOK 15/09 Q1019
  • 012020Z 21005KT CAVOK 15/08 Q1019

TAF TAF EGKK
Valide du 01 à 18h jusqu'au 03 à 00h UTC


011702Z 0118/0224 22009KT 9999 FEW040
PROB30
TEMPO 0118/0120 8000 SHRA
PROB30
TEMPO 0215/0221 7000 SHRA



MET'MAP, la Météo Aéronautique d'un coup d'oeil ! - Copyright ORBIFLY Décembre 2007 - Disclaimer

ORBIFLY MET'MAP TEAM :

Programmation & Développement : Alexandra Zaïnal
Sur une idée originale de : Baudouin d'Aumeries
Soutien technique & logistique : Manuel Goepfert
Assistance : Marc-Olivier Méhu




SOURCES & CREDITS :

   NOAA